O John Clark Restricted Landing Area [CLOSED]

Jump to: basic info | weather | comments

Related pages: nearby airports | nearby navaids | notams | map

Basic information (top)

Codes: 7IL2
Location: lon 42.368401, lat -87.991699, elev 790 ft / 241 m msl
Status: closed

Weather (top)

Current conditions for Waukegan Regional Airport 6nm (12km) ENE (rec'd 2015/03/29 06:55Z):

KUGN 290655Z AUTO 18010KT 10SM CLR M03/M11 A3021 RMK AO2 SLP246 T10331106

Airport forecast for Kenosha Regional Airport 14nm (26km) NNE (rec'd 2015/03/29 06:21Z):

TAF KENW 290520Z 2906/3006 18007KT P6SM SCT250 
     FM291000 19011G18KT P6SM BKN250 WS020/20045KT 
     FM291600 19018G29KT 4SM -RA BKN025 WS020/20050KT 
      TEMPO 2916/2917 1SM -RAPL 
     FM291700 19021G33KT 2SM -RAPL SCT008 OVC015 
     FM291900 21021G33KT P6SM BKN015 
     FM292000 22022G33KT P6SM VCSH OVC015 
     FM300000 25015KT P6SM BKN035 
     FM300400 30013KT P6SM SCT040

Latest comments (top)

No comments yet for O John Clark Restricted Landing Area

More... (top)

See also NOTAMs and nearby airports and navaids, or visit the O John Clark Restricted Landing Area page at the main OurAirports website..